createdAt,value
2022-08-23T00:01:57.298Z,55.87
2022-08-23T00:04:35.068Z,56.42
2022-08-23T00:07:02.516Z,55.86
2022-08-23T00:09:29.351Z,56.20
2022-08-23T00:12:12.064Z,56.80
2022-08-23T00:14:41.866Z,56.57
2022-08-23T00:17:13.159Z,56.77
2022-08-23T00:19:59.659Z,57.12
2022-08-23T00:22:26.298Z,57.42
2022-08-23T00:24:52.865Z,57.43
2022-08-23T00:27:19.437Z,57.35
2022-08-23T00:29:50.936Z,57.40
2022-08-23T00:32:23.527Z,57.44
2022-08-23T00:34:51.216Z,57.25
2022-08-23T00:37:18.735Z,57.07
2022-08-23T00:39:46.332Z,57.26
2022-08-23T00:42:51.571Z,57.24
2022-08-23T00:45:25.803Z,57.38
2022-08-23T00:47:53.070Z,57.37
2022-08-23T00:50:32.097Z,57.82
2022-08-23T00:53:16.926Z,57.74
2022-08-23T00:55:48.747Z,57.69
2022-08-23T00:58:18.598Z,57.47
2022-08-23T01:00:46.784Z,57.44
2022-08-23T01:03:13.667Z,56.96
2022-08-23T01:05:49.308Z,57.65
2022-08-23T01:08:16.320Z,57.56
2022-08-23T01:10:49.872Z,57.50
2022-08-23T01:13:39.656Z,57.59
2022-08-23T01:16:16.875Z,57.49
2022-08-23T01:18:44.163Z,57.40
2022-08-23T01:21:24.164Z,57.86
2022-08-23T01:23:55.832Z,57.70
2022-08-23T01:26:24.678Z,57.46
2022-08-23T01:28:52.837Z,57.35
2022-08-23T01:31:20.808Z,56.72
2022-08-23T01:33:56.849Z,57.60
2022-08-23T01:36:23.514Z,57.47
2022-08-23T01:38:52.111Z,57.55
2022-08-23T01:41:18.885Z,57.76
2022-08-23T01:43:45.497Z,58.07
2022-08-23T01:46:22.494Z,58.25
2022-08-23T01:48:50.772Z,58.28
2022-08-23T01:51:18.469Z,57.79
2022-08-23T01:53:46.189Z,58.39
2022-08-23T01:56:15.908Z,58.61
2022-08-23T01:58:42.546Z,58.55
2022-08-23T02:01:10.583Z,58.10
2022-08-23T02:03:37.272Z,58.74
2022-08-23T02:06:04.879Z,58.66
2022-08-23T02:08:32.198Z,58.66
2022-08-23T02:11:07.126Z,58.83
2022-08-23T02:13:33.663Z,58.88
2022-08-23T02:16:00.481Z,58.86
2022-08-23T02:18:27.111Z,58.73
2022-08-23T02:20:53.770Z,58.81
2022-08-23T02:23:21.491Z,58.75
2022-08-23T02:25:48.887Z,58.65
2022-08-23T02:28:15.974Z,58.70
2022-08-23T02:30:44.959Z,58.50
2022-08-23T02:33:12.142Z,58.63
2022-08-23T02:35:39.696Z,58.38
2022-08-23T02:38:08.831Z,58.73
2022-08-23T02:40:36.408Z,58.72
2022-08-23T02:43:04.788Z,59.11
2022-08-23T02:45:32.061Z,59.00
2022-08-23T02:47:59.515Z,58.93
2022-08-23T02:50:34.185Z,58.97
2022-08-23T02:53:00.948Z,59.14
2022-08-23T02:55:28.496Z,59.17
2022-08-23T02:57:55.567Z,59.15
2022-08-23T03:00:23.140Z,59.14
2022-08-23T03:02:50.231Z,59.17
2022-08-23T03:05:17.871Z,59.32
2022-08-23T03:07:45.223Z,59.28
2022-08-23T03:10:13.193Z,59.47
2022-08-23T03:12:46.162Z,59.61
2022-08-23T03:15:13.399Z,59.48
2022-08-23T03:17:39.985Z,59.37
2022-08-23T03:20:09.878Z,59.39
2022-08-23T03:22:36.621Z,59.44
2022-08-23T03:25:05.255Z,59.43
2022-08-23T03:27:44.731Z,59.40
2022-08-23T03:30:19.157Z,59.58
2022-08-23T03:32:51.947Z,59.68
2022-08-23T03:35:18.947Z,59.74
2022-08-23T03:37:45.833Z,59.69
2022-08-23T03:40:13.944Z,59.63
2022-08-23T03:42:40.655Z,59.81
2022-08-23T03:45:07.801Z,59.71
2022-08-23T03:47:34.511Z,59.84
2022-08-23T03:50:01.113Z,59.78
2022-08-23T03:52:27.806Z,59.71
2022-08-23T03:54:54.526Z,59.86
2022-08-23T03:57:21.187Z,59.73
2022-08-23T03:59:47.958Z,59.83
2022-08-23T04:02:15.288Z,59.82
2022-08-23T04:04:42.434Z,59.87
2022-08-23T04:07:41.588Z,60.06
2022-08-23T04:10:09.734Z,60.02
2022-08-23T04:12:39.400Z,60.17
2022-08-23T04:15:12.296Z,60.26
2022-08-23T04:17:40.618Z,60.44
2022-08-23T04:20:07.779Z,60.25
2022-08-23T04:22:40.022Z,60.49
2022-08-23T04:25:09.989Z,60.45
2022-08-23T04:27:54.805Z,60.38
2022-08-23T04:30:22.055Z,60.16
2022-08-23T04:32:51.202Z,60.48
2022-08-23T04:35:17.905Z,60.55
2022-08-23T04:37:44.627Z,60.44
2022-08-23T04:40:12.328Z,60.35
2022-08-23T04:42:42.138Z,60.54
2022-08-23T04:45:09.210Z,60.52
2022-08-23T04:47:38.403Z,60.75
2022-08-23T04:50:07.630Z,60.84
2022-08-23T04:52:35.463Z,60.87
2022-08-23T04:55:02.089Z,60.88
2022-08-23T04:57:48.868Z,60.90
2022-08-23T05:00:22.136Z,60.83
2022-08-23T05:02:56.204Z,60.81
2022-08-23T05:05:23.826Z,60.76
2022-08-23T05:07:50.446Z,60.88
2022-08-23T05:10:17.268Z,60.76
2022-08-23T05:12:48.052Z,61.09
2022-08-23T05:15:16.429Z,61.05
2022-08-23T05:17:46.653Z,60.92
2022-08-23T05:20:13.317Z,61.20
2022-08-23T05:22:42.226Z,60.59
2022-08-23T05:25:31.284Z,61.25
2022-08-23T05:27:58.160Z,61.19
2022-08-23T05:30:24.848Z,61.33
2022-08-23T05:32:51.503Z,61.37
2022-08-23T05:35:18.879Z,61.50
2022-08-23T05:37:46.347Z,61.48
2022-08-23T05:40:13.015Z,61.43
2022-08-23T05:42:53.903Z,61.56
2022-08-23T05:45:21.753Z,61.35
2022-08-23T05:47:49.784Z,61.42
2022-08-23T05:50:25.638Z,61.26
2022-08-23T05:52:52.185Z,61.25
2022-08-23T05:55:19.743Z,61.25
2022-08-23T05:57:48.769Z,61.28
2022-08-23T06:00:17.886Z,60.82
2022-08-23T06:02:48.316Z,61.00
2022-08-23T06:05:17.310Z,60.87
2022-08-23T06:07:45.167Z,61.07
2022-08-23T06:10:16.302Z,61.06
2022-08-23T06:12:48.537Z,60.89
2022-08-23T06:15:15.321Z,60.76
2022-08-23T06:17:42.360Z,60.41
2022-08-23T06:20:10.045Z,60.50
2022-08-23T06:22:51.615Z,60.34
2022-08-23T06:25:18.156Z,60.39
2022-08-23T06:27:55.405Z,60.37
2022-08-23T06:30:23.042Z,60.25
2022-08-23T06:32:55.832Z,60.17
2022-08-23T06:35:38.957Z,60.36
2022-08-23T06:38:09.779Z,60.12
2022-08-23T06:41:10.107Z,59.42
2022-08-23T06:43:58.840Z,59.63
2022-08-23T06:46:44.086Z,59.80
2022-08-23T06:49:11.537Z,59.53
2022-08-23T06:51:41.529Z,58.93
2022-08-23T06:54:17.813Z,59.18
2022-08-23T06:57:01.976Z,59.34
2022-08-23T06:59:31.503Z,58.89
2022-08-23T07:02:03.688Z,58.92
2022-08-23T07:04:48.799Z,58.71
2022-08-23T07:07:39.557Z,58.76
2022-08-23T07:10:12.188Z,58.76
2022-08-23T07:12:40.719Z,58.43
2022-08-23T07:15:08.272Z,58.75
2022-08-23T07:17:34.872Z,58.80
2022-08-23T07:20:01.672Z,58.28
2022-08-23T07:22:28.490Z,58.03
2022-08-23T07:24:55.317Z,57.92
2022-08-23T07:27:23.192Z,57.89
2022-08-23T07:29:59.974Z,57.56
2022-08-23T07:32:26.964Z,57.38
2022-08-23T07:34:56.167Z,57.21
2022-08-23T07:37:23.518Z,57.31
2022-08-23T07:39:50.887Z,57.21
2022-08-23T07:42:24.245Z,56.75
2022-08-23T07:44:54.216Z,56.33
2022-08-23T07:47:22.870Z,56.45
2022-08-23T07:49:49.538Z,56.38
2022-08-23T07:52:16.179Z,55.51
2022-08-23T07:54:48.617Z,53.71
2022-08-23T07:57:30.995Z,52.95
2022-08-23T08:00:30.301Z,51.97
2022-08-23T08:03:15.310Z,52.92
2022-08-23T08:06:07.272Z,52.17
2022-08-23T08:08:33.955Z,53.45
2022-08-23T08:11:00.839Z,53.57
2022-08-23T08:13:27.505Z,53.33
2022-08-23T08:15:54.458Z,53.42
2022-08-23T08:18:24.497Z,53.07
2022-08-23T08:21:14.567Z,51.77
2022-08-23T08:24:17.568Z,52.70
2022-08-23T08:26:48.524Z,52.82
2022-08-23T08:29:16.117Z,50.51
2022-08-23T08:31:45.442Z,49.90
2022-08-23T08:34:13.034Z,49.77
2022-08-23T08:36:43.963Z,49.62
2022-08-23T08:39:20.213Z,49.70
2022-08-23T08:42:04.751Z,47.33
2022-08-23T08:44:47.249Z,47.29
2022-08-23T08:47:39.775Z,49.08
2022-08-23T08:50:39.922Z,49.67
2022-08-23T08:53:15.200Z,48.21
2022-08-23T08:56:32.683Z,46.97
2022-08-23T08:59:19.848Z,47.84
2022-08-23T09:01:47.124Z,49.88
2022-08-23T09:04:19.792Z,49.81
2022-08-23T09:06:58.978Z,50.11
2022-08-23T09:09:44.500Z,44.59
2022-08-23T09:13:09.959Z,48.41
2022-08-23T09:15:40.745Z,46.99
2022-08-23T09:18:13.697Z,45.45
2022-08-23T09:20:42.145Z,47.85
2022-08-23T09:23:20.371Z,46.60
2022-08-23T09:25:55.819Z,46.60
2022-08-23T09:28:34.201Z,46.92
2022-08-23T09:31:01.145Z,48.27
2022-08-23T09:33:40.325Z,45.73
2022-08-23T09:36:22.827Z,47.09
2022-08-23T09:38:56.155Z,47.85
2022-08-23T09:41:28.055Z,47.26
2022-08-23T09:43:57.503Z,48.41
2022-08-23T09:46:30.237Z,47.85
2022-08-23T09:48:58.480Z,46.75
2022-08-23T09:51:35.092Z,46.05
2022-08-23T09:54:05.575Z,45.42
2022-08-23T09:56:40.469Z,45.62
2022-08-23T09:59:28.133Z,44.26
2022-08-23T10:02:04.224Z,45.21
2022-08-23T10:04:44.270Z,42.92
2022-08-23T10:07:34.116Z,41.19
2022-08-23T10:10:24.770Z,43.02
2022-08-23T10:12:56.005Z,44.32
2022-08-23T10:15:46.868Z,41.70
2022-08-23T10:18:16.682Z,41.45
2022-08-23T10:21:03.002Z,41.41
2022-08-23T10:24:13.108Z,42.57
2022-08-23T10:26:46.533Z,41.64
2022-08-23T10:29:36.912Z,41.22
2022-08-23T10:32:22.654Z,41.87
2022-08-23T10:35:04.908Z,40.01
2022-08-23T10:37:46.456Z,41.62
2022-08-23T10:40:20.336Z,40.31
2022-08-23T10:43:06.635Z,41.59
2022-08-23T10:45:37.120Z,39.70
2022-08-23T10:48:24.479Z,39.52
2022-08-23T10:51:07.983Z,40.18
2022-08-23T10:53:45.886Z,40.41
2022-08-23T10:56:14.953Z,40.74
2022-08-23T10:58:52.628Z,39.79
2022-08-23T11:01:45.867Z,40.16
2022-08-23T11:04:24.623Z,38.85
2022-08-23T11:07:21.735Z,40.52
2022-08-23T11:10:07.278Z,37.87
2022-08-23T11:12:54.412Z,39.62
2022-08-23T11:15:38.014Z,37.53
2022-08-23T11:18:41.378Z,39.28
2022-08-23T11:21:37.180Z,37.50
2022-08-23T11:24:05.869Z,36.84
2022-08-23T11:26:36.665Z,37.64
2022-08-23T11:29:06.080Z,36.95
2022-08-23T11:31:48.931Z,37.42
2022-08-23T11:34:43.256Z,38.36
2022-08-23T11:37:19.232Z,34.66
2022-08-23T11:39:58.328Z,35.70
2022-08-23T11:42:39.900Z,38.57
2022-08-23T11:45:26.998Z,38.29
2022-08-23T11:48:12.400Z,37.40
2022-08-23T11:50:57.405Z,37.21
2022-08-23T11:53:54.835Z,38.53
2022-08-23T11:56:33.108Z,38.97
2022-08-23T11:59:21.220Z,37.30
2022-08-23T12:01:50.764Z,38.93
2022-08-23T12:04:41.935Z,36.60
2022-08-23T12:07:12.568Z,38.13
2022-08-23T12:09:43.305Z,36.56
2022-08-23T12:12:25.363Z,38.55
2022-08-23T12:14:58.139Z,35.29
2022-08-23T12:17:24.869Z,35.48
2022-08-23T12:19:58.011Z,34.85
2022-08-23T12:22:30.635Z,35.88
2022-08-23T12:25:04.271Z,35.36
2022-08-23T12:27:41.295Z,35.41
2022-08-23T12:30:17.741Z,33.63
2022-08-23T12:32:54.987Z,33.99
2022-08-23T12:35:33.794Z,33.44
2022-08-23T12:38:07.797Z,32.86
2022-08-23T12:40:45.643Z,33.38
2022-08-23T12:43:23.743Z,33.52
2022-08-23T12:46:01.914Z,34.43
2022-08-23T12:48:31.809Z,35.36
2022-08-23T12:51:10.627Z,33.64
2022-08-23T12:53:44.485Z,34.24
2022-08-23T12:56:19.118Z,33.33
2022-08-23T12:58:51.209Z,32.62
2022-08-23T13:01:23.765Z,32.74
2022-08-23T13:04:14.197Z,32.70
2022-08-23T13:06:46.739Z,32.18
2022-08-23T13:09:25.193Z,32.51
2022-08-23T13:11:52.501Z,34.45
2022-08-23T13:14:30.932Z,34.04
2022-08-23T13:17:32.199Z,33.25
2022-08-23T13:20:21.948Z,29.45
2022-08-23T13:23:07.911Z,32.02
2022-08-23T13:25:38.161Z,31.66
2022-08-23T13:28:26.528Z,31.33
2022-08-23T13:31:06.726Z,31.80
2022-08-23T13:33:33.861Z,29.84
2022-08-23T13:36:21.360Z,31.43
2022-08-23T13:38:48.800Z,32.69
2022-08-23T13:41:39.071Z,32.32
2022-08-23T13:44:09.389Z,33.65
2022-08-23T13:46:45.225Z,31.49
2022-08-23T13:49:22.165Z,30.80
2022-08-23T13:52:33.002Z,33.09
2022-08-23T13:54:51.058Z,33.48
2022-08-23T13:57:21.463Z,32.71
2022-08-23T13:59:55.255Z,32.97
2022-08-23T14:02:23.556Z,31.98
2022-08-23T14:04:50.463Z,31.40
2022-08-23T14:07:17.565Z,30.33
2022-08-23T14:09:44.133Z,31.47
2022-08-23T14:12:23.923Z,29.62
2022-08-23T14:14:50.753Z,32.71
2022-08-23T14:17:20.609Z,32.69
2022-08-23T14:20:31.946Z,31.71
2022-08-23T14:22:34.908Z,29.94
2022-08-23T14:25:01.782Z,30.27
2022-08-23T14:27:28.425Z,31.68
2022-08-23T14:29:55.089Z,32.73
2022-08-23T14:32:21.836Z,33.00
2022-08-23T14:34:48.420Z,33.49
2022-08-23T14:38:02.766Z,31.72
2022-08-23T14:40:01.971Z,31.42
2022-08-23T14:42:28.923Z,32.03
2022-08-23T14:44:55.615Z,32.34
2022-08-23T14:47:22.275Z,32.54
2022-08-23T14:49:53.281Z,31.61
2022-08-23T14:52:21.135Z,31.88
2022-08-23T14:54:48.107Z,31.83
2022-08-23T14:57:14.790Z,29.79
2022-08-23T14:59:41.435Z,29.99
2022-08-23T15:02:11.848Z,29.51
2022-08-23T15:04:38.956Z,29.38
2022-08-23T15:07:21.420Z,29.75
2022-08-23T15:09:51.376Z,30.31
2022-08-23T15:15:12.191Z,27.18
2022-08-23T15:17:52.424Z,26.95
2022-08-23T15:20:20.613Z,28.01
2022-08-23T15:22:55.426Z,28.41
2022-08-23T15:25:24.315Z,28.13
2022-08-23T15:27:51.546Z,28.64
2022-08-23T15:30:18.694Z,28.63
2022-08-23T15:32:52.304Z,26.27
2022-08-23T15:35:23.733Z,25.98
2022-08-23T15:37:50.358Z,27.64
2022-08-23T15:40:17.127Z,25.72
2022-08-23T15:42:43.811Z,24.74
2022-08-23T15:45:11.240Z,26.45
2022-08-23T15:47:49.135Z,25.99
2022-08-23T15:50:19.414Z,25.67
2022-08-23T15:52:46.097Z,26.82
2022-08-23T15:55:12.850Z,25.07
2022-08-23T15:57:44.765Z,26.11
2022-08-23T16:00:13.425Z,26.40
2022-08-23T16:03:04.450Z,26.10
2022-08-23T16:05:26.963Z,24.70
2022-08-23T16:07:57.889Z,23.94
2022-08-23T16:10:28.165Z,25.92
2022-08-23T16:12:55.061Z,25.73
2022-08-23T16:15:22.766Z,24.87
2022-08-23T16:17:49.607Z,24.41
2022-08-23T16:20:16.351Z,24.20
2022-08-23T16:22:43.234Z,23.25
2022-08-23T16:25:10.636Z,24.51
2022-08-23T16:27:37.787Z,23.93
2022-08-23T16:30:06.292Z,23.69
2022-08-23T16:32:32.941Z,23.92
2022-08-23T16:34:59.467Z,24.09
2022-08-23T16:37:26.016Z,24.95
2022-08-23T16:39:52.788Z,24.85
2022-08-23T16:42:20.008Z,24.50
2022-08-23T16:44:46.706Z,24.78
2022-08-23T16:47:13.378Z,25.72
2022-08-23T16:49:40.146Z,24.43
2022-08-23T16:52:06.823Z,25.40
2022-08-23T16:54:33.488Z,24.97
2022-08-23T16:57:00.041Z,25.33
2022-08-23T16:59:26.627Z,24.34
2022-08-23T17:01:59.860Z,24.66
2022-08-23T17:04:30.557Z,24.52
2022-08-23T17:06:58.423Z,24.62
2022-08-23T17:09:27.007Z,25.50
2022-08-23T17:11:54.832Z,25.51
2022-08-23T17:14:21.564Z,25.20
2022-08-23T17:16:48.287Z,24.65
2022-08-23T17:19:14.991Z,24.93
2022-08-23T17:21:42.565Z,24.96
2022-08-23T17:24:09.563Z,25.63
2022-08-23T17:26:36.740Z,26.58
2022-08-23T17:29:04.035Z,27.18
2022-08-23T17:31:30.614Z,27.84
2022-08-23T17:33:57.204Z,28.05
2022-08-23T17:36:40.471Z,27.34
2022-08-23T17:39:10.301Z,28.38
2022-08-23T17:41:38.572Z,28.53
2022-08-23T17:44:07.593Z,28.75
2022-08-23T17:46:35.684Z,29.08
2022-08-23T17:49:02.301Z,29.03
2022-08-23T17:51:29.165Z,29.51
2022-08-23T17:53:55.782Z,29.80
2022-08-23T17:56:22.679Z,29.95
2022-08-23T17:58:49.299Z,30.58
2022-08-23T18:01:16.155Z,31.24
2022-08-23T18:03:42.760Z,31.85
2022-08-23T18:06:16.413Z,32.56
2022-08-23T18:08:44.356Z,32.95
2022-08-23T18:11:10.934Z,33.72
2022-08-23T18:13:37.783Z,34.04
2022-08-23T18:16:04.552Z,34.48
2022-08-23T18:18:31.092Z,34.81
2022-08-23T18:20:57.904Z,35.41
2022-08-23T18:23:24.616Z,35.53
2022-08-23T18:25:51.274Z,35.54
2022-08-23T18:28:17.875Z,36.02
2022-08-23T18:30:53.383Z,35.77
2022-08-23T18:33:23.766Z,36.38
2022-08-23T18:35:53.368Z,37.17
2022-08-23T18:38:19.901Z,37.71
2022-08-23T18:40:47.989Z,38.48
2022-08-23T18:43:18.939Z,38.15
2022-08-23T18:45:47.517Z,39.13
2022-08-23T18:48:14.360Z,39.74
2022-08-23T18:50:41.900Z,39.94
2022-08-23T18:53:09.676Z,39.81
2022-08-23T18:55:36.607Z,40.09
2022-08-23T18:58:04.314Z,40.37
2022-08-23T19:00:30.919Z,40.35
2022-08-23T19:02:58.852Z,40.76
2022-08-23T19:05:25.633Z,40.92
2022-08-23T19:07:52.243Z,41.04
2022-08-23T19:10:20.585Z,41.37
2022-08-23T19:12:51.809Z,41.30
2022-08-23T19:15:21.460Z,41.31
2022-08-23T19:17:48.235Z,41.51
2022-08-23T19:20:15.924Z,41.46
2022-08-23T19:22:42.453Z,41.93
2022-08-23T19:25:09.705Z,42.16
2022-08-23T19:27:36.323Z,42.36
2022-08-23T19:30:06.579Z,42.62
2022-08-23T19:32:33.274Z,42.97
2022-08-23T19:35:00.025Z,43.17
2022-08-23T19:37:27.361Z,43.45
2022-08-23T19:39:55.762Z,43.74
2022-08-23T19:42:22.895Z,43.84
2022-08-23T19:44:49.950Z,44.42
2022-08-23T19:47:19.744Z,44.19
2022-08-23T19:49:47.525Z,44.52
2022-08-23T19:52:14.773Z,44.74
2022-08-23T19:54:41.400Z,44.67
2022-08-23T19:57:08.066Z,44.87
2022-08-23T19:59:37.582Z,45.87
2022-08-23T20:02:05.053Z,45.43
2022-08-23T20:04:33.185Z,45.92
2022-08-23T20:07:01.510Z,45.63
2022-08-23T20:09:29.642Z,46.08
2022-08-23T20:11:56.666Z,46.32
2022-08-23T20:14:26.307Z,46.84
2022-08-23T20:16:54.917Z,47.06
2022-08-23T20:19:21.774Z,46.87
2022-08-23T20:21:48.440Z,46.82
2022-08-23T20:24:16.430Z,47.24
2022-08-23T20:26:44.005Z,46.61
2022-08-23T20:29:21.663Z,47.54
2022-08-23T20:31:57.622Z,47.48
2022-08-23T20:34:27.116Z,47.26
2022-08-23T20:36:55.252Z,47.71
2022-08-23T20:39:24.182Z,47.54
2022-08-23T20:41:52.399Z,47.67
2022-08-23T20:44:22.885Z,47.93
2022-08-23T20:46:53.913Z,47.82
2022-08-23T20:49:23.245Z,47.80
2022-08-23T20:51:50.023Z,48.09
2022-08-23T20:54:17.438Z,48.41
2022-08-23T20:56:43.971Z,48.14
2022-08-23T20:59:10.722Z,48.63
2022-08-23T21:01:37.453Z,48.59
2022-08-23T21:04:04.918Z,48.56
2022-08-23T21:06:38.705Z,49.22
2022-08-23T21:09:05.262Z,48.59
2022-08-23T21:11:31.824Z,48.92
2022-08-23T21:13:58.667Z,49.18
2022-08-23T21:16:25.967Z,49.11
2022-08-23T21:18:54.386Z,49.04
2022-08-23T21:21:26.006Z,48.97
2022-08-23T21:23:53.753Z,49.07
2022-08-23T21:26:20.873Z,49.13
2022-08-23T21:28:47.660Z,49.50
2022-08-23T21:31:17.860Z,49.41
2022-08-23T21:33:44.724Z,49.56
2022-08-23T21:36:16.904Z,49.72
2022-08-23T21:38:43.776Z,49.75
2022-08-23T21:41:32.208Z,50.23
2022-08-23T21:43:59.729Z,49.87
2022-08-23T21:46:26.584Z,49.80
2022-08-23T21:48:53.325Z,50.04
2022-08-23T21:51:20.206Z,50.04
2022-08-23T21:53:46.794Z,50.48
2022-08-23T21:56:13.922Z,50.14
2022-08-23T21:58:40.592Z,50.27
2022-08-23T22:01:07.160Z,50.39
2022-08-23T22:03:35.740Z,50.38
2022-08-23T22:06:03.575Z,50.45
2022-08-23T22:08:30.523Z,50.51
2022-08-23T22:10:58.149Z,50.50
2022-08-23T22:13:28.085Z,51.22
2022-08-23T22:15:54.719Z,50.66
2022-08-23T22:18:21.421Z,50.80
2022-08-23T22:20:47.978Z,50.90
2022-08-23T22:23:14.559Z,51.13
2022-08-23T22:25:41.295Z,51.53
2022-08-23T22:28:07.996Z,51.70
2022-08-23T22:30:34.731Z,51.47
2022-08-23T22:33:01.430Z,51.55
2022-08-23T22:35:28.072Z,51.68
2022-08-23T22:38:12.853Z,51.97
2022-08-23T22:40:40.588Z,52.22
2022-08-23T22:43:07.175Z,52.50
2022-08-23T22:45:33.782Z,52.71
2022-08-23T22:48:00.780Z,52.65
2022-08-23T22:50:27.392Z,52.66
2022-08-23T22:52:54.017Z,52.58
2022-08-23T22:55:20.607Z,52.64
2022-08-23T22:57:47.161Z,52.58
2022-08-23T23:00:13.948Z,52.98
2022-08-23T23:02:40.758Z,52.95
2022-08-23T23:05:07.869Z,52.66
2022-08-23T23:07:34.372Z,52.80
2022-08-23T23:10:00.997Z,53.07
2022-08-23T23:12:27.546Z,52.77
2022-08-23T23:14:54.091Z,52.85
2022-08-23T23:17:20.612Z,53.04
2022-08-23T23:19:47.235Z,53.05
2022-08-23T23:22:13.823Z,53.34
2022-08-23T23:24:41.053Z,53.41
2022-08-23T23:27:08.168Z,53.17
2022-08-23T23:29:35.018Z,53.19
2022-08-23T23:32:01.665Z,53.41
2022-08-23T23:34:28.398Z,53.31
2022-08-23T23:36:58.598Z,54.15
2022-08-23T23:39:26.916Z,53.66
2022-08-23T23:41:54.314Z,53.57
2022-08-23T23:44:31.128Z,53.69
2022-08-23T23:46:59.490Z,53.42
2022-08-23T23:49:32.406Z,53.66
2022-08-23T23:52:00.831Z,53.75
2022-08-23T23:54:27.497Z,53.68
2022-08-23T23:56:54.139Z,53.72
2022-08-23T23:59:20.765Z,53.89
